sensor_id;sensor_type;location;lat;lon;timestamp;P1;durP1;ratioP1;P2;durP2;ratioP2
47589;SDS011;33316;52.298;9.056;2022-07-29T00:02:10;1.50;;;0.35;;
47589;SDS011;33316;52.298;9.056;2022-07-29T00:04:38;0.43;;;0.30;;
47589;SDS011;33316;52.298;9.056;2022-07-29T00:07:04;1.17;;;0.30;;
47589;SDS011;33316;52.298;9.056;2022-07-29T00:09:30;1.85;;;0.20;;
47589;SDS011;33316;52.298;9.056;2022-07-29T00:11:56;0.90;;;0.30;;
47589;SDS011;33316;52.298;9.056;2022-07-29T00:14:27;1.25;;;0.22;;
47589;SDS011;33316;52.298;9.056;2022-07-29T00:16:56;0.80;;;0.20;;
47589;SDS011;33316;52.298;9.056;2022-07-29T00:19:21;1.45;;;0.38;;
47589;SDS011;33316;52.298;9.056;2022-07-29T00:21:47;0.82;;;0.30;;
47589;SDS011;33316;52.298;9.056;2022-07-29T00:24:12;0.73;;;0.32;;
47589;SDS011;33316;52.298;9.056;2022-07-29T00:26:38;1.98;;;0.50;;
47589;SDS011;33316;52.298;9.056;2022-07-29T00:29:04;2.08;;;0.60;;
47589;SDS011;33316;52.298;9.056;2022-07-29T00:31:30;1.70;;;0.40;;
47589;SDS011;33316;52.298;9.056;2022-07-29T00:33:55;0.55;;;0.30;;
47589;SDS011;33316;52.298;9.056;2022-07-29T00:36:22;1.15;;;0.60;;
47589;SDS011;33316;52.298;9.056;2022-07-29T00:38:48;2.03;;;0.65;;
47589;SDS011;33316;52.298;9.056;2022-07-29T00:41:15;1.63;;;0.40;;
47589;SDS011;33316;52.298;9.056;2022-07-29T00:43:41;1.15;;;0.40;;
47589;SDS011;33316;52.298;9.056;2022-07-29T00:46:10;1.23;;;0.50;;
47589;SDS011;33316;52.298;9.056;2022-07-29T00:48:36;0.68;;;0.30;;
47589;SDS011;33316;52.298;9.056;2022-07-29T00:51:03;0.38;;;0.28;;
47589;SDS011;33316;52.298;9.056;2022-07-29T00:53:36;1.10;;;0.32;;
47589;SDS011;33316;52.298;9.056;2022-07-29T00:56:01;0.82;;;0.30;;
47589;SDS011;33316;52.298;9.056;2022-07-29T00:58:27;2.30;;;0.50;;
47589;SDS011;33316;52.298;9.056;2022-07-29T01:00:56;1.25;;;0.50;;
47589;SDS011;33316;52.298;9.056;2022-07-29T01:03:25;3.95;;;0.43;;
47589;SDS011;33316;52.298;9.056;2022-07-29T01:05:51;1.00;;;0.40;;
47589;SDS011;33316;52.298;9.056;2022-07-29T01:08:21;2.50;;;0.38;;
47589;SDS011;33316;52.298;9.056;2022-07-29T01:10:51;1.58;;;0.40;;
47589;SDS011;33316;52.298;9.056;2022-07-29T01:13:23;1.33;;;0.47;;
47589;SDS011;33316;52.298;9.056;2022-07-29T01:15:51;0.60;;;0.30;;
47589;SDS011;33316;52.298;9.056;2022-07-29T01:18:29;4.70;;;0.68;;
47589;SDS011;33316;52.298;9.056;2022-07-29T01:31:25;3.15;;;0.82;;
47589;SDS011;33316;52.298;9.056;2022-07-29T01:34:17;1.95;;;0.57;;
47589;SDS011;33316;52.298;9.056;2022-07-29T01:36:48;1.38;;;0.45;;
47589;SDS011;33316;52.298;9.056;2022-07-29T01:39:32;0.40;;;0.30;;
47589;SDS011;33316;52.298;9.056;2022-07-29T01:44:46;1.40;;;0.40;;
47589;SDS011;33316;52.298;9.056;2022-07-29T01:47:17;1.10;;;0.50;;
47589;SDS011;33316;52.298;9.056;2022-07-29T01:49:47;1.40;;;0.40;;
47589;SDS011;33316;52.298;9.056;2022-07-29T01:52:36;2.90;;;0.40;;
47589;SDS011;33316;52.298;9.056;2022-07-29T01:55:09;1.52;;;0.50;;
47589;SDS011;33316;52.298;9.056;2022-07-29T01:57:41;1.23;;;0.30;;
47589;SDS011;33316;52.298;9.056;2022-07-29T02:00:09;0.50;;;0.40;;
47589;SDS011;33316;52.298;9.056;2022-07-29T02:02:40;0.65;;;0.35;;
47589;SDS011;33316;52.298;9.056;2022-07-29T02:05:14;1.58;;;0.40;;
47589;SDS011;33316;52.298;9.056;2022-07-29T02:07:42;2.35;;;0.40;;
47589;SDS011;33316;52.298;9.056;2022-07-29T02:10:09;0.60;;;0.50;;
47589;SDS011;33316;52.298;9.056;2022-07-29T02:12:40;1.05;;;0.35;;
47589;SDS011;33316;52.298;9.056;2022-07-29T02:15:12;1.27;;;0.30;;
47589;SDS011;33316;52.298;9.056;2022-07-29T02:17:48;0.80;;;0.30;;
47589;SDS011;33316;52.298;9.056;2022-07-29T02:20:22;3.10;;;0.40;;
47589;SDS011;33316;52.298;9.056;2022-07-29T02:22:49;0.55;;;0.32;;
47589;SDS011;33316;52.298;9.056;2022-07-29T02:25:17;2.47;;;0.30;;
47589;SDS011;33316;52.298;9.056;2022-07-29T02:27:43;2.53;;;0.30;;
47589;SDS011;33316;52.298;9.056;2022-07-29T02:30:17;0.90;;;0.20;;
47589;SDS011;33316;52.298;9.056;2022-07-29T02:32:44;1.10;;;0.30;;
47589;SDS011;33316;52.298;9.056;2022-07-29T02:35:12;3.13;;;0.40;;
47589;SDS011;33316;52.298;9.056;2022-07-29T02:37:39;0.95;;;0.38;;
47589;SDS011;33316;52.298;9.056;2022-07-29T02:40:11;0.65;;;0.38;;
47589;SDS011;33316;52.298;9.056;2022-07-29T02:42:39;1.55;;;0.45;;
47589;SDS011;33316;52.298;9.056;2022-07-29T02:45:10;1.95;;;0.40;;
47589;SDS011;33316;52.298;9.056;2022-07-29T02:47:42;1.23;;;0.50;;
47589;SDS011;33316;52.298;9.056;2022-07-29T02:50:17;0.88;;;0.43;;
47589;SDS011;33316;52.298;9.056;2022-07-29T02:52:58;1.25;;;0.40;;
47589;SDS011;33316;52.298;9.056;2022-07-29T02:58:02;1.98;;;0.35;;
47589;SDS011;33316;52.298;9.056;2022-07-29T03:00:40;0.85;;;0.35;;
47589;SDS011;33316;52.298;9.056;2022-07-29T03:03:09;2.10;;;0.40;;
47589;SDS011;33316;52.298;9.056;2022-07-29T03:05:38;1.57;;;0.40;;
47589;SDS011;33316;52.298;9.056;2022-07-29T03:08:05;1.15;;;0.40;;
47589;SDS011;33316;52.298;9.056;2022-07-29T03:10:34;1.75;;;0.40;;
47589;SDS011;33316;52.298;9.056;2022-07-29T03:13:01;2.00;;;0.60;;
47589;SDS011;33316;52.298;9.056;2022-07-29T03:15:28;4.97;;;0.70;;
47589;SDS011;33316;52.298;9.056;2022-07-29T03:17:54;1.33;;;0.52;;
47589;SDS011;33316;52.298;9.056;2022-07-29T03:20:26;2.05;;;0.60;;
47589;SDS011;33316;52.298;9.056;2022-07-29T03:22:55;1.65;;;0.40;;
47589;SDS011;33316;52.298;9.056;2022-07-29T03:25:23;2.17;;;0.77;;
47589;SDS011;33316;52.298;9.056;2022-07-29T03:27:52;2.13;;;0.50;;
47589;SDS011;33316;52.298;9.056;2022-07-29T03:30:21;1.77;;;0.40;;
47589;SDS011;33316;52.298;9.056;2022-07-29T03:32:47;1.88;;;0.52;;
47589;SDS011;33316;52.298;9.056;2022-07-29T03:35:13;3.53;;;0.60;;
47589;SDS011;33316;52.298;9.056;2022-07-29T03:37:42;1.70;;;0.50;;
47589;SDS011;33316;52.298;9.056;2022-07-29T03:40:08;1.02;;;0.50;;
47589;SDS011;33316;52.298;9.056;2022-07-29T03:42:36;1.50;;;0.50;;
47589;SDS011;33316;52.298;9.056;2022-07-29T03:45:05;1.27;;;0.40;;
47589;SDS011;33316;52.298;9.056;2022-07-29T03:47:38;1.63;;;0.40;;
47589;SDS011;33316;52.298;9.056;2022-07-29T03:50:11;1.73;;;0.40;;
47589;SDS011;33316;52.298;9.056;2022-07-29T03:52:39;2.05;;;0.60;;
47589;SDS011;33316;52.298;9.056;2022-07-29T03:55:08;2.47;;;0.50;;
47589;SDS011;33316;52.298;9.056;2022-07-29T03:57:34;1.15;;;0.30;;
47589;SDS011;33316;52.298;9.056;2022-07-29T04:00:03;0.47;;;0.20;;
47589;SDS011;33316;52.298;9.056;2022-07-29T04:02:30;1.27;;;0.43;;
47589;SDS011;33316;52.298;9.056;2022-07-29T04:04:57;1.33;;;0.40;;
47589;SDS011;33316;52.298;9.056;2022-07-29T04:07:23;1.02;;;0.40;;
47589;SDS011;33316;52.298;9.056;2022-07-29T04:09:48;1.35;;;0.47;;
47589;SDS011;33316;52.298;9.056;2022-07-29T04:12:14;1.25;;;0.45;;
47589;SDS011;33316;52.298;9.056;2022-07-29T04:14:39;1.30;;;0.35;;
47589;SDS011;33316;52.298;9.056;2022-07-29T04:17:05;0.85;;;0.30;;
47589;SDS011;33316;52.298;9.056;2022-07-29T04:19:34;0.55;;;0.30;;
47589;SDS011;33316;52.298;9.056;2022-07-29T04:22:02;1.05;;;0.30;;
47589;SDS011;33316;52.298;9.056;2022-07-29T04:24:27;0.68;;;0.40;;
47589;SDS011;33316;52.298;9.056;2022-07-29T04:26:55;2.78;;;0.57;;
47589;SDS011;33316;52.298;9.056;2022-07-29T04:29:21;1.25;;;0.50;;
47589;SDS011;33316;52.298;9.056;2022-07-29T04:31:49;0.85;;;0.32;;
47589;SDS011;33316;52.298;9.056;2022-07-29T04:34:15;2.17;;;0.45;;
47589;SDS011;33316;52.298;9.056;2022-07-29T04:36:40;0.75;;;0.30;;
47589;SDS011;33316;52.298;9.056;2022-07-29T04:39:06;2.25;;;0.50;;
47589;SDS011;33316;52.298;9.056;2022-07-29T04:41:32;1.17;;;0.50;;
47589;SDS011;33316;52.298;9.056;2022-07-29T04:44:00;3.05;;;0.70;;
47589;SDS011;33316;52.298;9.056;2022-07-29T04:46:29;3.55;;;0.60;;
47589;SDS011;33316;52.298;9.056;2022-07-29T04:48:55;1.90;;;0.52;;
47589;SDS011;33316;52.298;9.056;2022-07-29T04:51:21;2.05;;;0.63;;
47589;SDS011;33316;52.298;9.056;2022-07-29T04:53:46;1.20;;;0.50;;
47589;SDS011;33316;52.298;9.056;2022-07-29T04:56:12;1.17;;;0.45;;
47589;SDS011;33316;52.298;9.056;2022-07-29T04:58:38;0.95;;;0.40;;
47589;SDS011;33316;52.298;9.056;2022-07-29T05:01:03;0.60;;;0.30;;
47589;SDS011;33316;52.298;9.056;2022-07-29T05:03:29;0.63;;;0.45;;
47589;SDS011;33316;52.298;9.056;2022-07-29T05:05:55;2.17;;;0.60;;
47589;SDS011;33316;52.298;9.056;2022-07-29T05:08:20;1.67;;;0.52;;
47589;SDS011;33316;52.298;9.056;2022-07-29T05:10:48;3.05;;;0.60;;
47589;SDS011;33316;52.298;9.056;2022-07-29T05:13:14;1.55;;;0.50;;
47589;SDS011;33316;52.298;9.056;2022-07-29T05:15:39;1.33;;;0.40;;
47589;SDS011;33316;52.298;9.056;2022-07-29T05:18:05;1.50;;;0.30;;
47589;SDS011;33316;52.298;9.056;2022-07-29T05:20:31;0.60;;;0.30;;
47589;SDS011;33316;52.298;9.056;2022-07-29T05:22:58;0.73;;;0.30;;
47589;SDS011;33316;52.298;9.056;2022-07-29T05:25:28;0.52;;;0.30;;
47589;SDS011;33316;52.298;9.056;2022-07-29T05:27:54;0.77;;;0.40;;
47589;SDS011;33316;52.298;9.056;2022-07-29T05:30:21;0.57;;;0.30;;
47589;SDS011;33316;52.298;9.056;2022-07-29T05:32:48;0.52;;;0.30;;
47589;SDS011;33316;52.298;9.056;2022-07-29T05:35:14;0.28;;;0.20;;
47589;SDS011;33316;52.298;9.056;2022-07-29T05:37:40;0.90;;;0.30;;
47589;SDS011;33316;52.298;9.056;2022-07-29T05:40:07;1.60;;;0.20;;
47589;SDS011;33316;52.298;9.056;2022-07-29T05:42:33;0.95;;;0.30;;
47589;SDS011;33316;52.298;9.056;2022-07-29T05:45:02;1.27;;;0.30;;
47589;SDS011;33316;52.298;9.056;2022-07-29T05:47:28;1.35;;;0.40;;
47589;SDS011;33316;52.298;9.056;2022-07-29T05:49:56;1.73;;;0.40;;
47589;SDS011;33316;52.298;9.056;2022-07-29T05:52:22;1.98;;;0.60;;
47589;SDS011;33316;52.298;9.056;2022-07-29T05:54:48;1.65;;;0.50;;
47589;SDS011;33316;52.298;9.056;2022-07-29T05:57:17;4.00;;;0.60;;
47589;SDS011;33316;52.298;9.056;2022-07-29T05:59:44;2.15;;;0.50;;
47589;SDS011;33316;52.298;9.056;2022-07-29T06:02:13;4.72;;;0.55;;
47589;SDS011;33316;52.298;9.056;2022-07-29T06:04:42;0.82;;;0.40;;
47589;SDS011;33316;52.298;9.056;2022-07-29T06:07:08;1.20;;;0.57;;
47589;SDS011;33316;52.298;9.056;2022-07-29T06:09:34;2.15;;;0.50;;
47589;SDS011;33316;52.298;9.056;2022-07-29T06:11:59;0.82;;;0.45;;
47589;SDS011;33316;52.298;9.056;2022-07-29T06:14:25;2.08;;;0.52;;
47589;SDS011;33316;52.298;9.056;2022-07-29T06:16:51;2.67;;;0.70;;
47589;SDS011;33316;52.298;9.056;2022-07-29T06:19:19;2.80;;;0.60;;
47589;SDS011;33316;52.298;9.056;2022-07-29T06:21:45;3.80;;;0.65;;
47589;SDS011;33316;52.298;9.056;2022-07-29T06:24:12;2.00;;;0.60;;
47589;SDS011;33316;52.298;9.056;2022-07-29T06:26:38;3.53;;;0.50;;
47589;SDS011;33316;52.298;9.056;2022-07-29T06:29:05;1.40;;;0.50;;
47589;SDS011;33316;52.298;9.056;2022-07-29T06:31:31;1.52;;;0.60;;
47589;SDS011;33316;52.298;9.056;2022-07-29T06:33:57;2.42;;;0.50;;
47589;SDS011;33316;52.298;9.056;2022-07-29T06:36:22;1.10;;;0.50;;
47589;SDS011;33316;52.298;9.056;2022-07-29T06:38:48;0.95;;;0.40;;
47589;SDS011;33316;52.298;9.056;2022-07-29T06:41:13;2.17;;;0.40;;
47589;SDS011;33316;52.298;9.056;2022-07-29T06:43:41;1.48;;;0.30;;
47589;SDS011;33316;52.298;9.056;2022-07-29T06:46:09;1.63;;;0.50;;
47589;SDS011;33316;52.298;9.056;2022-07-29T06:48:37;4.07;;;0.68;;
47589;SDS011;33316;52.298;9.056;2022-07-29T06:51:03;3.78;;;0.90;;
47589;SDS011;33316;52.298;9.056;2022-07-29T06:53:30;1.38;;;0.50;;
47589;SDS011;33316;52.298;9.056;2022-07-29T06:55:57;2.13;;;0.45;;
47589;SDS011;33316;52.298;9.056;2022-07-29T06:58:24;0.70;;;0.45;;
47589;SDS011;33316;52.298;9.056;2022-07-29T07:00:50;2.15;;;0.70;;
47589;SDS011;33316;52.298;9.056;2022-07-29T07:03:16;0.77;;;0.45;;
47589;SDS011;33316;52.298;9.056;2022-07-29T07:05:42;2.28;;;0.52;;
47589;SDS011;33316;52.298;9.056;2022-07-29T07:08:08;2.58;;;0.60;;
47589;SDS011;33316;52.298;9.056;2022-07-29T07:10:34;1.27;;;0.50;;
47589;SDS011;33316;52.298;9.056;2022-07-29T07:13:00;0.95;;;0.40;;
47589;SDS011;33316;52.298;9.056;2022-07-29T07:15:26;2.40;;;0.57;;
47589;SDS011;33316;52.298;9.056;2022-07-29T07:17:52;1.45;;;0.52;;
47589;SDS011;33316;52.298;9.056;2022-07-29T07:20:17;1.63;;;0.70;;
47589;SDS011;33316;52.298;9.056;2022-07-29T07:22:43;1.90;;;0.57;;
47589;SDS011;33316;52.298;9.056;2022-07-29T07:25:09;1.33;;;0.52;;
47589;SDS011;33316;52.298;9.056;2022-07-29T07:27:36;2.53;;;0.75;;
47589;SDS011;33316;52.298;9.056;2022-07-29T07:30:03;3.13;;;0.68;;
47589;SDS011;33316;52.298;9.056;2022-07-29T07:32:33;2.45;;;0.50;;
47589;SDS011;33316;52.298;9.056;2022-07-29T07:34:59;2.35;;;0.70;;
47589;SDS011;33316;52.298;9.056;2022-07-29T07:37:25;2.55;;;0.68;;
47589;SDS011;33316;52.298;9.056;2022-07-29T07:39:51;1.50;;;0.50;;
47589;SDS011;33316;52.298;9.056;2022-07-29T07:42:17;2.55;;;0.70;;
47589;SDS011;33316;52.298;9.056;2022-07-29T07:44:43;2.45;;;0.77;;
47589;SDS011;33316;52.298;9.056;2022-07-29T07:47:10;2.75;;;0.80;;
47589;SDS011;33316;52.298;9.056;2022-07-29T07:49:39;1.58;;;0.60;;
47589;SDS011;33316;52.298;9.056;2022-07-29T07:52:05;2.60;;;0.63;;
47589;SDS011;33316;52.298;9.056;2022-07-29T07:54:30;3.05;;;0.75;;
47589;SDS011;33316;52.298;9.056;2022-07-29T07:56:56;3.03;;;0.82;;
47589;SDS011;33316;52.298;9.056;2022-07-29T07:59:22;1.30;;;0.55;;
47589;SDS011;33316;52.298;9.056;2022-07-29T08:01:48;4.32;;;0.90;;
47589;SDS011;33316;52.298;9.056;2022-07-29T08:04:14;2.28;;;0.80;;
47589;SDS011;33316;52.298;9.056;2022-07-29T08:06:39;5.32;;;0.80;;
47589;SDS011;33316;52.298;9.056;2022-07-29T08:09:05;3.58;;;0.70;;
47589;SDS011;33316;52.298;9.056;2022-07-29T08:11:31;2.17;;;0.60;;
47589;SDS011;33316;52.298;9.056;2022-07-29T08:13:57;6.05;;;0.70;;
47589;SDS011;33316;52.298;9.056;2022-07-29T08:16:22;2.65;;;0.68;;
47589;SDS011;33316;52.298;9.056;2022-07-29T08:18:50;2.40;;;0.80;;
47589;SDS011;33316;52.298;9.056;2022-07-29T08:21:17;2.67;;;0.70;;
47589;SDS011;33316;52.298;9.056;2022-07-29T08:23:46;3.15;;;0.82;;
47589;SDS011;33316;52.298;9.056;2022-07-29T08:26:14;3.60;;;0.80;;
47589;SDS011;33316;52.298;9.056;2022-07-29T08:28:41;1.52;;;0.73;;
47589;SDS011;33316;52.298;9.056;2022-07-29T08:31:14;2.20;;;1.00;;
47589;SDS011;33316;52.298;9.056;2022-07-29T08:33:40;3.00;;;0.70;;
47589;SDS011;33316;52.298;9.056;2022-07-29T08:36:07;2.50;;;0.50;;
47589;SDS011;33316;52.298;9.056;2022-07-29T08:38:32;3.75;;;1.08;;
47589;SDS011;33316;52.298;9.056;2022-07-29T08:41:00;2.42;;;0.60;;
47589;SDS011;33316;52.298;9.056;2022-07-29T08:43:26;3.05;;;0.70;;
47589;SDS011;33316;52.298;9.056;2022-07-29T08:45:53;2.15;;;0.68;;
47589;SDS011;33316;52.298;9.056;2022-07-29T08:48:19;2.42;;;0.73;;
47589;SDS011;33316;52.298;9.056;2022-07-29T08:50:47;3.40;;;0.70;;
47589;SDS011;33316;52.298;9.056;2022-07-29T08:53:15;5.32;;;0.93;;
47589;SDS011;33316;52.298;9.056;2022-07-29T08:55:43;4.38;;;1.05;;
47589;SDS011;33316;52.298;9.056;2022-07-29T08:58:10;4.05;;;0.75;;
47589;SDS011;33316;52.298;9.056;2022-07-29T09:00:38;2.45;;;0.70;;
47589;SDS011;33316;52.298;9.056;2022-07-29T09:03:07;1.73;;;0.65;;
47589;SDS011;33316;52.298;9.056;2022-07-29T09:05:34;1.40;;;0.60;;
47589;SDS011;33316;52.298;9.056;2022-07-29T09:08:00;1.80;;;0.70;;
47589;SDS011;33316;52.298;9.056;2022-07-29T09:10:26;2.83;;;0.85;;
47589;SDS011;33316;52.298;9.056;2022-07-29T09:12:54;2.63;;;0.75;;
47589;SDS011;33316;52.298;9.056;2022-07-29T09:15:19;3.47;;;0.65;;
47589;SDS011;33316;52.298;9.056;2022-07-29T09:17:46;2.03;;;0.80;;
47589;SDS011;33316;52.298;9.056;2022-07-29T09:20:17;2.83;;;0.85;;
47589;SDS011;33316;52.298;9.056;2022-07-29T09:22:44;1.85;;;0.75;;
47589;SDS011;33316;52.298;9.056;2022-07-29T09:25:14;2.72;;;0.60;;
47589;SDS011;33316;52.298;9.056;2022-07-29T09:28:06;1.40;;;0.70;;
47589;SDS011;33316;52.298;9.056;2022-07-29T09:30:32;3.22;;;0.85;;
47589;SDS011;33316;52.298;9.056;2022-07-29T09:32:59;3.28;;;0.73;;
47589;SDS011;33316;52.298;9.056;2022-07-29T09:35:26;3.63;;;0.60;;
47589;SDS011;33316;52.298;9.056;2022-07-29T09:37:53;2.13;;;0.75;;
47589;SDS011;33316;52.298;9.056;2022-07-29T09:40:23;3.55;;;1.00;;
47589;SDS011;33316;52.298;9.056;2022-07-29T09:42:52;3.50;;;1.30;;
47589;SDS011;33316;52.298;9.056;2022-07-29T09:47:51;1.77;;;0.63;;
47589;SDS011;33316;52.298;9.056;2022-07-29T09:50:17;4.18;;;0.98;;
47589;SDS011;33316;52.298;9.056;2022-07-29T09:55:17;4.90;;;0.88;;
47589;SDS011;33316;52.298;9.056;2022-07-29T09:57:43;2.60;;;0.85;;
47589;SDS011;33316;52.298;9.056;2022-07-29T10:00:11;3.28;;;0.98;;
47589;SDS011;33316;52.298;9.056;2022-07-29T10:02:39;1.55;;;0.77;;
47589;SDS011;33316;52.298;9.056;2022-07-29T10:05:21;1.63;;;0.60;;
47589;SDS011;33316;52.298;9.056;2022-07-29T10:07:55;2.58;;;0.80;;
47589;SDS011;33316;52.298;9.056;2022-07-29T10:10:26;2.20;;;0.98;;
47589;SDS011;33316;52.298;9.056;2022-07-29T10:12:57;2.30;;;0.77;;
47589;SDS011;33316;52.298;9.056;2022-07-29T10:15:24;1.92;;;0.82;;
47589;SDS011;33316;52.298;9.056;2022-07-29T10:17:52;4.38;;;0.93;;
47589;SDS011;33316;52.298;9.056;2022-07-29T10:20:20;4.28;;;1.05;;
47589;SDS011;33316;52.298;9.056;2022-07-29T10:22:46;5.82;;;0.93;;
47589;SDS011;33316;52.298;9.056;2022-07-29T10:25:12;1.73;;;0.75;;
47589;SDS011;33316;52.298;9.056;2022-07-29T10:27:40;1.98;;;0.90;;
47589;SDS011;33316;52.298;9.056;2022-07-29T10:30:05;3.33;;;0.90;;
47589;SDS011;33316;52.298;9.056;2022-07-29T10:41:09;1.75;;;0.70;;
47589;SDS011;33316;52.298;9.056;2022-07-29T10:44:01;2.75;;;0.85;;
47589;SDS011;33316;52.298;9.056;2022-07-29T10:46:34;2.90;;;0.93;;
47589;SDS011;33316;52.298;9.056;2022-07-29T10:49:16;2.22;;;1.00;;
47589;SDS011;33316;52.298;9.056;2022-07-29T10:57:21;2.35;;;0.70;;
47589;SDS011;33316;52.298;9.056;2022-07-29T11:04:58;4.63;;;1.27;;
47589;SDS011;33316;52.298;9.056;2022-07-29T11:07:33;6.65;;;1.17;;
47589;SDS011;33316;52.298;9.056;2022-07-29T11:15:10;3.33;;;0.95;;
47589;SDS011;33316;52.298;9.056;2022-07-29T11:20:37;2.30;;;0.90;;
47589;SDS011;33316;52.298;9.056;2022-07-29T11:28:54;4.28;;;1.05;;
47589;SDS011;33316;52.298;9.056;2022-07-29T11:39:35;3.88;;;1.02;;
47589;SDS011;33316;52.298;9.056;2022-07-29T11:43:04;3.67;;;0.85;;
47589;SDS011;33316;52.298;9.056;2022-07-29T11:45:06;2.88;;;1.00;;
47589;SDS011;33316;52.298;9.056;2022-07-29T11:47:59;5.88;;;1.58;;
47589;SDS011;33316;52.298;9.056;2022-07-29T11:50:29;5.32;;;1.33;;
47589;SDS011;33316;52.298;9.056;2022-07-29T11:52:57;2.28;;;1.10;;
47589;SDS011;33316;52.298;9.056;2022-07-29T11:55:23;4.05;;;1.33;;
47589;SDS011;33316;52.298;9.056;2022-07-29T11:57:50;3.67;;;0.93;;
47589;SDS011;33316;52.298;9.056;2022-07-29T12:00:26;3.63;;;1.20;;
47589;SDS011;33316;52.298;9.056;2022-07-29T12:03:05;2.15;;;0.98;;
47589;SDS011;33316;52.298;9.056;2022-07-29T12:05:36;5.10;;;1.15;;
47589;SDS011;33316;52.298;9.056;2022-07-29T12:10:44;4.75;;;1.63;;
47589;SDS011;33316;52.298;9.056;2022-07-29T12:13:11;3.92;;;1.17;;
47589;SDS011;33316;52.298;9.056;2022-07-29T12:15:38;3.75;;;1.35;;
47589;SDS011;33316;52.298;9.056;2022-07-29T12:18:11;4.03;;;1.30;;
47589;SDS011;33316;52.298;9.056;2022-07-29T12:20:41;6.25;;;1.10;;
47589;SDS011;33316;52.298;9.056;2022-07-29T12:23:08;2.13;;;1.10;;
47589;SDS011;33316;52.298;9.056;2022-07-29T12:25:36;2.97;;;1.00;;
47589;SDS011;33316;52.298;9.056;2022-07-29T12:28:04;2.75;;;1.05;;
47589;SDS011;33316;52.298;9.056;2022-07-29T12:30:42;5.68;;;1.60;;
47589;SDS011;33316;52.298;9.056;2022-07-29T12:33:42;3.75;;;1.08;;
47589;SDS011;33316;52.298;9.056;2022-07-29T12:36:01;3.67;;;1.17;;
47589;SDS011;33316;52.298;9.056;2022-07-29T12:38:28;4.53;;;1.02;;
47589;SDS011;33316;52.298;9.056;2022-07-29T12:40:54;3.33;;;1.10;;
47589;SDS011;33316;52.298;9.056;2022-07-29T12:43:20;3.47;;;1.30;;
47589;SDS011;33316;52.298;9.056;2022-07-29T12:45:51;3.40;;;1.20;;
47589;SDS011;33316;52.298;9.056;2022-07-29T12:50:59;4.97;;;0.90;;
47589;SDS011;33316;52.298;9.056;2022-07-29T12:53:26;4.53;;;1.30;;
47589;SDS011;33316;52.298;9.056;2022-07-29T12:55:53;4.68;;;0.95;;
47589;SDS011;33316;52.298;9.056;2022-07-29T12:58:27;2.67;;;1.00;;
47589;SDS011;33316;52.298;9.056;2022-07-29T13:01:13;4.13;;;1.15;;
47589;SDS011;33316;52.298;9.056;2022-07-29T13:11:34;5.43;;;1.20;;
47589;SDS011;33316;52.298;9.056;2022-07-29T13:14:01;3.65;;;0.98;;
47589;SDS011;33316;52.298;9.056;2022-07-29T13:16:27;3.50;;;1.17;;
47589;SDS011;33316;52.298;9.056;2022-07-29T13:19:05;5.47;;;1.20;;
47589;SDS011;33316;52.298;9.056;2022-07-29T13:21:36;4.55;;;1.30;;
47589;SDS011;33316;52.298;9.056;2022-07-29T13:24:03;5.55;;;1.20;;
47589;SDS011;33316;52.298;9.056;2022-07-29T13:26:30;3.97;;;1.27;;
47589;SDS011;33316;52.298;9.056;2022-07-29T13:28:56;3.95;;;1.35;;
47589;SDS011;33316;52.298;9.056;2022-07-29T13:31:22;3.47;;;1.27;;
47589;SDS011;33316;52.298;9.056;2022-07-29T13:33:48;2.40;;;1.10;;
47589;SDS011;33316;52.298;9.056;2022-07-29T13:36:13;5.72;;;1.33;;
47589;SDS011;33316;52.298;9.056;2022-07-29T13:38:39;6.35;;;1.40;;
47589;SDS011;33316;52.298;9.056;2022-07-29T13:41:05;4.07;;;1.23;;
47589;SDS011;33316;52.298;9.056;2022-07-29T13:43:30;3.17;;;1.15;;
47589;SDS011;33316;52.298;9.056;2022-07-29T13:45:56;3.80;;;1.30;;
47589;SDS011;33316;52.298;9.056;2022-07-29T13:48:22;3.25;;;0.95;;
47589;SDS011;33316;52.298;9.056;2022-07-29T13:50:47;1.50;;;1.00;;
47589;SDS011;33316;52.298;9.056;2022-07-29T13:53:13;3.65;;;1.15;;
47589;SDS011;33316;52.298;9.056;2022-07-29T13:55:39;5.85;;;1.13;;
47589;SDS011;33316;52.298;9.056;2022-07-29T13:58:04;2.78;;;1.30;;
47589;SDS011;33316;52.298;9.056;2022-07-29T14:00:30;5.53;;;1.60;;
47589;SDS011;33316;52.298;9.056;2022-07-29T14:02:56;4.78;;;1.23;;
47589;SDS011;33316;52.298;9.056;2022-07-29T14:05:21;3.05;;;1.40;;
47589;SDS011;33316;52.298;9.056;2022-07-29T14:07:47;2.63;;;1.23;;
47589;SDS011;33316;52.298;9.056;2022-07-29T14:10:13;2.25;;;1.05;;
47589;SDS011;33316;52.298;9.056;2022-07-29T14:12:38;5.78;;;1.55;;
47589;SDS011;33316;52.298;9.056;2022-07-29T14:15:06;1.73;;;1.23;;
47589;SDS011;33316;52.298;9.056;2022-07-29T14:17:32;2.75;;;1.27;;
47589;SDS011;33316;52.298;9.056;2022-07-29T14:19:58;3.08;;;1.10;;
47589;SDS011;33316;52.298;9.056;2022-07-29T14:22:23;2.25;;;1.10;;
47589;SDS011;33316;52.298;9.056;2022-07-29T14:24:50;3.70;;;1.48;;
47589;SDS011;33316;52.298;9.056;2022-07-29T14:27:15;2.85;;;1.33;;
47589;SDS011;33316;52.298;9.056;2022-07-29T14:29:41;3.95;;;1.33;;
47589;SDS011;33316;52.298;9.056;2022-07-29T14:32:07;2.78;;;1.10;;
47589;SDS011;33316;52.298;9.056;2022-07-29T14:34:35;2.95;;;1.25;;
47589;SDS011;33316;52.298;9.056;2022-07-29T14:37:01;3.28;;;1.20;;
47589;SDS011;33316;52.298;9.056;2022-07-29T14:39:29;2.65;;;1.13;;
47589;SDS011;33316;52.298;9.056;2022-07-29T14:41:55;2.70;;;1.10;;
47589;SDS011;33316;52.298;9.056;2022-07-29T14:44:21;1.77;;;1.02;;
47589;SDS011;33316;52.298;9.056;2022-07-29T14:46:46;2.53;;;1.25;;
47589;SDS011;33316;52.298;9.056;2022-07-29T14:49:12;3.60;;;1.08;;
47589;SDS011;33316;52.298;9.056;2022-07-29T14:51:37;3.83;;;1.15;;
47589;SDS011;33316;52.298;9.056;2022-07-29T14:54:03;3.83;;;1.00;;
47589;SDS011;33316;52.298;9.056;2022-07-29T14:56:28;3.45;;;1.30;;
47589;SDS011;33316;52.298;9.056;2022-07-29T14:58:55;1.73;;;1.02;;
47589;SDS011;33316;52.298;9.056;2022-07-29T15:01:21;1.55;;;0.68;;
47589;SDS011;33316;52.298;9.056;2022-07-29T15:03:47;3.53;;;1.23;;
47589;SDS011;33316;52.298;9.056;2022-07-29T15:06:12;4.18;;;1.40;;
47589;SDS011;33316;52.298;9.056;2022-07-29T15:08:38;2.65;;;0.93;;
47589;SDS011;33316;52.298;9.056;2022-07-29T15:11:03;2.33;;;1.10;;
47589;SDS011;33316;52.298;9.056;2022-07-29T15:13:29;2.58;;;0.95;;
47589;SDS011;33316;52.298;9.056;2022-07-29T15:15:54;2.78;;;1.10;;
47589;SDS011;33316;52.298;9.056;2022-07-29T15:18:20;4.55;;;1.30;;
47589;SDS011;33316;52.298;9.056;2022-07-29T15:20:45;3.05;;;1.10;;
47589;SDS011;33316;52.298;9.056;2022-07-29T15:23:11;3.70;;;1.00;;
47589;SDS011;33316;52.298;9.056;2022-07-29T15:25:37;3.72;;;1.50;;
47589;SDS011;33316;52.298;9.056;2022-07-29T15:28:04;1.88;;;0.98;;
47589;SDS011;33316;52.298;9.056;2022-07-29T15:30:33;1.45;;;0.95;;
47589;SDS011;33316;52.298;9.056;2022-07-29T15:33:01;3.47;;;1.38;;
47589;SDS011;33316;52.298;9.056;2022-07-29T15:35:28;4.75;;;1.30;;
47589;SDS011;33316;52.298;9.056;2022-07-29T15:37:53;4.55;;;1.20;;
47589;SDS011;33316;52.298;9.056;2022-07-29T15:40:19;2.50;;;0.95;;
47589;SDS011;33316;52.298;9.056;2022-07-29T15:42:44;2.80;;;1.05;;
47589;SDS011;33316;52.298;9.056;2022-07-29T15:45:10;3.50;;;1.17;;
47589;SDS011;33316;52.298;9.056;2022-07-29T15:47:35;7.90;;;1.35;;
47589;SDS011;33316;52.298;9.056;2022-07-29T15:50:01;3.03;;;1.33;;
47589;SDS011;33316;52.298;9.056;2022-07-29T15:52:27;2.03;;;1.13;;
47589;SDS011;33316;52.298;9.056;2022-07-29T15:54:54;3.33;;;1.15;;
47589;SDS011;33316;52.298;9.056;2022-07-29T15:57:20;4.85;;;1.58;;
47589;SDS011;33316;52.298;9.056;2022-07-29T15:59:45;4.00;;;1.50;;
47589;SDS011;33316;52.298;9.056;2022-07-29T16:02:11;6.25;;;1.48;;
47589;SDS011;33316;52.298;9.056;2022-07-29T16:04:36;5.10;;;1.10;;
47589;SDS011;33316;52.298;9.056;2022-07-29T16:07:02;2.30;;;1.15;;
47589;SDS011;33316;52.298;9.056;2022-07-29T16:09:28;3.30;;;1.00;;